createdAt,value
2023-02-21T00:02:55.557Z,98133.88
2023-02-21T00:08:35.331Z,98126.70
2023-02-21T00:14:00.252Z,98122.83
2023-02-21T00:20:00.133Z,98119.45
2023-02-21T00:26:20.042Z,98131.63
2023-02-21T00:32:39.994Z,98145.48
2023-02-21T00:38:59.925Z,98145.98
2023-02-21T00:44:40.091Z,98138.27
2023-02-21T00:50:00.138Z,98142.85
2023-02-21T00:55:20.409Z,98132.63
2023-02-21T01:00:42.592Z,98124.02
2023-02-21T01:06:02.357Z,98128.70
2023-02-21T01:11:22.896Z,98126.08
2023-02-21T01:16:46.266Z,98130.27
2023-02-21T01:22:06.880Z,98122.48
2023-02-21T01:27:26.998Z,98116.30
2023-02-21T01:32:47.114Z,98112.09
2023-02-21T01:38:07.212Z,98113.41
2023-02-21T01:43:35.989Z,98103.32
2023-02-21T01:48:55.996Z,98093.74
2023-02-21T01:54:16.553Z,98094.45
2023-02-21T01:59:40.635Z,98086.11
2023-02-21T02:05:01.671Z,98090.62
2023-02-21T02:10:22.147Z,98079.00
2023-02-21T02:15:42.510Z,98087.24
2023-02-21T02:21:22.826Z,98092.17
2023-02-21T02:26:45.854Z,98099.48
2023-02-21T02:32:21.697Z,98099.68
2023-02-21T02:37:46.036Z,98097.82
2023-02-21T02:43:07.247Z,98099.78
2023-02-21T02:48:23.056Z,98097.22
2023-02-21T02:53:28.411Z,98095.92
2023-02-21T02:58:41.778Z,98099.45
2023-02-21T03:04:05.441Z,98099.10
2023-02-21T03:09:18.678Z,98092.25
2023-02-21T03:14:24.902Z,98094.56
2023-02-21T03:19:34.102Z,98089.30
2023-02-21T03:24:39.958Z,98089.33
2023-02-21T03:29:41.646Z,98080.92
2023-02-21T03:34:44.031Z,98093.58
2023-02-21T03:39:47.655Z,98096.38
2023-02-21T03:44:50.182Z,98103.11
2023-02-21T03:50:03.067Z,98098.64
2023-02-21T03:55:07.959Z,98095.60
2023-02-21T04:00:13.380Z,98094.83
2023-02-21T04:05:17.143Z,98093.34
2023-02-21T04:11:18.765Z,98090.25
2023-02-21T04:17:40.060Z,98086.99
2023-02-21T04:24:03.466Z,98079.27
2023-02-21T04:30:26.568Z,98087.22
2023-02-21T04:36:48.542Z,98093.11
2023-02-21T04:42:20.629Z,98089.36
2023-02-21T04:47:22.010Z,98086.36
2023-02-21T04:52:23.394Z,98083.71
2023-02-21T04:58:25.790Z,98084.83
2023-02-21T05:04:48.431Z,98098.04
2023-02-21T05:10:11.222Z,98095.98
2023-02-21T05:15:13.403Z,98093.35
2023-02-21T05:20:14.758Z,98095.27
2023-02-21T05:25:18.011Z,98096.32
2023-02-21T05:31:19.600Z,98099.50
2023-02-21T05:36:41.697Z,98106.61
2023-02-21T05:41:48.001Z,98108.81
2023-02-21T05:46:49.274Z,98106.23
2023-02-21T05:51:50.533Z,98109.61
2023-02-21T05:56:52.599Z,98112.52
2023-02-21T06:01:53.962Z,98112.65
2023-02-21T06:07:00.434Z,98105.39
2023-02-21T06:12:04.167Z,98110.45
2023-02-21T06:17:05.505Z,98109.23
2023-02-21T06:22:06.967Z,98114.38
2023-02-21T06:27:08.252Z,98127.98
2023-02-21T06:32:09.516Z,98131.35
2023-02-21T06:37:10.844Z,98130.55
2023-02-21T06:42:14.392Z,98136.31
2023-02-21T06:47:16.935Z,98143.27
2023-02-21T06:52:18.453Z,98145.59
2023-02-21T06:57:20.042Z,98140.17
2023-02-21T07:02:21.371Z,98146.61
2023-02-21T07:07:22.967Z,98153.48
2023-02-21T07:12:24.487Z,98156.77
2023-02-21T07:17:25.934Z,98163.52
2023-02-21T07:22:27.863Z,98172.73
2023-02-21T07:27:29.334Z,98181.35
2023-02-21T07:32:30.447Z,98174.11
2023-02-21T07:37:31.872Z,98185.20
2023-02-21T07:42:33.616Z,98176.27
2023-02-21T07:47:35.639Z,98176.87
2023-02-21T07:52:36.873Z,98183.27
2023-02-21T07:57:38.456Z,98176.98
2023-02-21T08:02:40.148Z,98190.15
2023-02-21T08:07:41.714Z,98186.52
2023-02-21T08:12:43.097Z,98186.42
2023-02-21T08:17:54.204Z,98182.88
2023-02-21T08:22:56.477Z,98192.96
2023-02-21T08:27:58.296Z,98186.41
2023-02-21T08:32:59.829Z,98186.24
2023-02-21T08:38:03.385Z,98183.23
2023-02-21T08:43:05.501Z,98182.32
2023-02-21T08:48:06.844Z,98178.96
2023-02-21T08:53:15.571Z,98188.10
2023-02-21T08:58:17.020Z,98187.09
2023-02-21T09:03:18.639Z,98201.70
2023-02-21T09:08:22.011Z,98203.40
2023-02-21T09:13:29.584Z,98198.72
2023-02-21T09:18:31.714Z,98201.05
2023-02-21T09:23:32.929Z,98204.88
2023-02-21T09:28:34.447Z,98216.38
2023-02-21T09:33:41.307Z,98222.95
2023-02-21T09:38:42.645Z,98225.22
2023-02-21T09:43:48.137Z,98225.04
2023-02-21T09:48:49.958Z,98222.09
2023-02-21T09:53:55.561Z,98223.39
2023-02-21T09:58:58.500Z,98229.23
2023-02-21T10:04:18.440Z,98228.30
2023-02-21T10:09:44.761Z,98229.63
2023-02-21T10:15:04.569Z,98234.98
2023-02-21T10:20:22.114Z,98236.70
2023-02-21T10:25:45.173Z,98238.44
2023-02-21T10:30:49.288Z,98242.36
2023-02-21T10:35:54.372Z,98238.77
2023-02-21T10:40:58.141Z,98237.58
2023-02-21T10:46:10.949Z,98236.25
2023-02-21T10:51:16.093Z,98232.02
2023-02-21T10:56:18.102Z,98239.84
2023-02-21T11:01:43.561Z,98239.73
2023-02-21T11:06:48.869Z,98244.02
2023-02-21T11:12:19.150Z,98244.84
2023-02-21T11:17:25.140Z,98251.42
2023-02-21T11:22:43.545Z,98254.59
2023-02-21T11:27:57.610Z,98256.86
2023-02-21T11:33:04.254Z,98256.96
2023-02-21T11:38:29.508Z,98269.45
2023-02-21T11:43:32.866Z,98277.38
2023-02-21T11:48:44.416Z,98281.55
2023-02-21T11:53:46.146Z,98272.86
2023-02-21T11:59:35.598Z,98263.52
2023-02-21T12:04:51.772Z,98253.74
2023-02-21T12:10:02.253Z,98258.41
2023-02-21T12:15:19.441Z,98262.91
2023-02-21T12:20:54.053Z,98263.55
2023-02-21T12:26:22.970Z,98268.08
2023-02-21T12:31:35.433Z,98269.56
2023-02-21T12:36:58.289Z,98268.55
2023-02-21T12:42:25.551Z,98279.87
2023-02-21T12:47:36.138Z,98284.70
2023-02-21T12:53:40.581Z,98283.14
2023-02-21T12:59:32.254Z,98277.33
2023-02-21T13:04:56.400Z,98270.61
2023-02-21T13:10:05.050Z,98266.48
2023-02-21T13:15:21.594Z,98265.92
2023-02-21T13:20:25.488Z,98255.06
2023-02-21T13:25:30.173Z,98259.60
2023-02-21T13:31:37.503Z,98258.95
2023-02-21T13:38:04.351Z,98270.37
2023-02-21T13:44:25.464Z,98289.05
2023-02-21T13:49:55.288Z,98287.30
2023-02-21T13:55:10.290Z,98288.09
2023-02-21T14:00:20.657Z,98279.22
2023-02-21T14:05:22.742Z,98287.29
2023-02-21T14:10:47.140Z,98282.33
2023-02-21T14:15:55.991Z,98273.79
2023-02-21T14:20:58.886Z,98264.46
2023-02-21T14:26:02.367Z,98269.09
2023-02-21T14:31:03.962Z,98273.09
2023-02-21T14:36:14.506Z,98272.59
2023-02-21T14:41:37.005Z,98280.42
2023-02-21T14:47:06.370Z,98271.11
2023-02-21T14:52:41.921Z,98271.20
2023-02-21T14:58:01.659Z,98269.05
2023-02-21T15:03:09.366Z,98275.95
2023-02-21T15:08:16.399Z,98282.88
2023-02-21T15:13:23.722Z,98282.46
2023-02-21T15:18:31.689Z,98285.68
2023-02-21T15:23:34.002Z,98291.02
2023-02-21T15:28:35.252Z,98295.31
2023-02-21T15:33:39.161Z,98300.29
2023-02-21T15:38:48.471Z,98305.41
2023-02-21T15:43:57.103Z,98308.43
2023-02-21T15:49:03.437Z,98321.81
2023-02-21T15:54:16.887Z,98328.61
2023-02-21T15:59:29.444Z,98332.81
2023-02-21T16:04:36.259Z,98338.16
2023-02-21T16:15:04.983Z,98347.13
2023-02-21T16:20:21.904Z,98351.42
2023-02-21T16:25:24.843Z,98359.52
2023-02-21T16:30:35.082Z,98354.52
2023-02-21T16:35:36.762Z,98359.98
2023-02-21T16:40:38.212Z,98365.54
2023-02-21T16:45:42.068Z,98373.13
2023-02-21T16:50:46.827Z,98377.02
2023-02-21T16:55:50.108Z,98385.01
2023-02-21T17:00:53.338Z,98387.64
2023-02-21T17:33:34.662Z,98423.73
2023-02-21T17:38:40.471Z,98430.28
2023-02-21T17:43:45.243Z,98427.11
2023-02-21T18:07:54.465Z,98433.50
2023-02-21T18:12:57.071Z,98435.90
2023-02-21T18:18:06.972Z,98441.02
2023-02-21T18:23:09.708Z,98441.42
2023-02-21T18:28:11.779Z,98447.88
2023-02-21T18:33:14.541Z,98449.70
2023-02-21T18:38:16.749Z,98448.61
2023-02-21T18:43:29.017Z,98452.35
2023-02-21T18:48:30.999Z,98450.60
2023-02-21T18:53:33.270Z,98455.77
2023-02-21T18:58:36.965Z,98461.13
2023-02-21T19:03:39.146Z,98473.05
2023-02-21T19:08:41.219Z,98482.97
2023-02-21T19:13:50.539Z,98494.05
2023-02-21T19:18:57.068Z,98513.11
2023-02-21T19:23:59.292Z,98514.16
2023-02-21T19:29:03.707Z,98524.35
2023-02-21T19:34:06.100Z,98531.08
2023-02-21T19:39:09.937Z,98535.59
2023-02-21T19:44:12.475Z,98544.90
2023-02-21T19:49:22.109Z,98548.02
2023-02-21T19:54:25.289Z,98550.42
2023-02-21T19:59:29.494Z,98555.02
2023-02-21T20:04:41.598Z,98560.80
2023-02-21T20:09:46.462Z,98559.03
2023-02-21T20:14:50.843Z,98563.55
2023-02-21T20:19:55.157Z,98563.91
2023-02-21T20:24:58.733Z,98570.30
2023-02-21T20:30:02.417Z,98573.20
2023-02-21T20:35:05.731Z,98575.30
2023-02-21T20:40:11.330Z,98580.52
2023-02-21T20:45:13.457Z,98580.85
2023-02-21T20:50:20.368Z,98582.54
2023-02-21T20:55:22.647Z,98590.39
2023-02-21T21:00:30.631Z,98600.92
2023-02-21T21:06:27.138Z,98607.62
2023-02-21T21:11:43.094Z,98608.12
2023-02-21T21:16:45.909Z,98608.40
2023-02-21T21:21:48.022Z,98610.64
2023-02-21T21:26:58.903Z,98611.38
2023-02-21T21:32:01.004Z,98616.23
2023-02-21T21:37:03.986Z,98617.98
2023-02-21T21:42:09.666Z,98620.39
2023-02-21T21:48:11.415Z,98621.11
2023-02-21T21:54:33.193Z,98623.40
2023-02-21T21:59:55.124Z,98627.09
2023-02-21T22:04:58.140Z,98633.30
2023-02-21T22:10:02.681Z,98640.65
2023-02-21T22:15:06.083Z,98641.33
2023-02-21T22:20:17.497Z,98643.89
2023-02-21T22:25:21.114Z,98643.06
2023-02-21T22:30:23.231Z,98648.88
2023-02-21T22:35:25.326Z,98654.86
2023-02-21T22:40:28.301Z,98654.38
2023-02-21T22:45:33.422Z,98655.90
2023-02-21T22:50:39.712Z,98659.80
2023-02-21T22:55:41.708Z,98668.48
2023-02-21T23:00:43.663Z,98672.89
2023-02-21T23:05:48.239Z,98664.77
2023-02-21T23:10:51.777Z,98667.70
2023-02-21T23:15:56.220Z,98673.36
2023-02-21T23:20:58.451Z,98677.27
2023-02-21T23:26:00.406Z,98672.17
2023-02-21T23:31:02.456Z,98673.42
2023-02-21T23:36:05.003Z,98678.23
2023-02-21T23:41:10.637Z,98673.45
2023-02-21T23:46:20.138Z,98671.55
2023-02-21T23:51:26.526Z,98680.86
2023-02-21T23:56:28.684Z,98678.01
